sensor_id;sensor_type;location;lat;lon;timestamp;P1;durP1;ratioP1;P2;durP2;ratioP2
19163;SDS011;9714;51.208;4.242;2022-12-08T00:01:42;17.73;;;8.93;;
19163;SDS011;9714;51.208;4.242;2022-12-08T00:04:26;17.67;;;8.53;;
19163;SDS011;9714;51.208;4.242;2022-12-08T00:06:54;18.80;;;9.47;;
19163;SDS011;9714;51.208;4.242;2022-12-08T00:09:39;20.53;;;10.23;;
19163;SDS011;9714;51.208;4.242;2022-12-08T00:12:07;21.50;;;10.93;;
19163;SDS011;9714;51.208;4.242;2022-12-08T00:14:37;21.60;;;10.97;;
19163;SDS011;9714;51.208;4.242;2022-12-08T00:17:05;23.33;;;10.63;;
19163;SDS011;9714;51.208;4.242;2022-12-08T00:19:33;22.47;;;11.83;;
19163;SDS011;9714;51.208;4.242;2022-12-08T00:22:03;25.63;;;11.93;;
19163;SDS011;9714;51.208;4.242;2022-12-08T00:24:32;23.77;;;11.57;;
19163;SDS011;9714;51.208;4.242;2022-12-08T00:27:00;23.90;;;13.53;;
19163;SDS011;9714;51.208;4.242;2022-12-08T00:29:27;26.43;;;12.17;;
19163;SDS011;9714;51.208;4.242;2022-12-08T00:31:54;25.97;;;12.73;;
19163;SDS011;9714;51.208;4.242;2022-12-08T00:34:21;29.17;;;13.83;;
19163;SDS011;9714;51.208;4.242;2022-12-08T00:36:48;28.50;;;14.07;;
19163;SDS011;9714;51.208;4.242;2022-12-08T00:39:17;28.53;;;13.80;;
19163;SDS011;9714;51.208;4.242;2022-12-08T00:41:44;24.00;;;13.77;;
19163;SDS011;9714;51.208;4.242;2022-12-08T00:44:28;24.20;;;14.00;;
19163;SDS011;9714;51.208;4.242;2022-12-08T00:46:55;26.90;;;13.07;;
19163;SDS011;9714;51.208;4.242;2022-12-08T00:49:22;31.37;;;13.00;;
19163;SDS011;9714;51.208;4.242;2022-12-08T00:51:50;23.83;;;13.17;;
19163;SDS011;9714;51.208;4.242;2022-12-08T00:54:18;24.17;;;13.83;;
19163;SDS011;9714;51.208;4.242;2022-12-08T00:56:47;28.93;;;13.73;;
19163;SDS011;9714;51.208;4.242;2022-12-08T00:59:14;31.53;;;14.47;;
19163;SDS011;9714;51.208;4.242;2022-12-08T01:01:42;30.07;;;14.63;;
19163;SDS011;9714;51.208;4.242;2022-12-08T01:04:12;31.13;;;12.50;;
19163;SDS011;9714;51.208;4.242;2022-12-08T01:06:41;27.97;;;12.77;;
19163;SDS011;9714;51.208;4.242;2022-12-08T01:09:08;29.90;;;13.87;;
19163;SDS011;9714;51.208;4.242;2022-12-08T01:11:43;26.97;;;13.37;;
19163;SDS011;9714;51.208;4.242;2022-12-08T01:14:11;28.97;;;13.43;;
19163;SDS011;9714;51.208;4.242;2022-12-08T01:16:38;27.50;;;14.50;;
19163;SDS011;9714;51.208;4.242;2022-12-08T01:19:06;26.63;;;14.07;;
19163;SDS011;9714;51.208;4.242;2022-12-08T01:21:34;27.07;;;14.47;;
19163;SDS011;9714;51.208;4.242;2022-12-08T01:24:01;32.40;;;13.50;;
19163;SDS011;9714;51.208;4.242;2022-12-08T01:26:28;28.30;;;13.17;;
19163;SDS011;9714;51.208;4.242;2022-12-08T01:28:56;29.73;;;13.57;;
19163;SDS011;9714;51.208;4.242;2022-12-08T01:31:23;25.97;;;12.10;;
19163;SDS011;9714;51.208;4.242;2022-12-08T01:33:50;31.30;;;12.80;;
19163;SDS011;9714;51.208;4.242;2022-12-08T01:36:19;29.70;;;12.10;;
19163;SDS011;9714;51.208;4.242;2022-12-08T01:38:47;34.17;;;12.07;;
19163;SDS011;9714;51.208;4.242;2022-12-08T01:41:15;23.70;;;11.77;;
19163;SDS011;9714;51.208;4.242;2022-12-08T01:43:54;24.50;;;11.07;;
19163;SDS011;9714;51.208;4.242;2022-12-08T01:46:25;26.50;;;11.07;;
19163;SDS011;9714;51.208;4.242;2022-12-08T01:48:55;27.27;;;11.40;;
19163;SDS011;9714;51.208;4.242;2022-12-08T01:51:27;20.13;;;11.00;;
19163;SDS011;9714;51.208;4.242;2022-12-08T01:53:58;22.30;;;11.67;;
19163;SDS011;9714;51.208;4.242;2022-12-08T01:56:27;28.80;;;10.17;;
19163;SDS011;9714;51.208;4.242;2022-12-08T01:58:59;26.33;;;12.20;;
19163;SDS011;9714;51.208;4.242;2022-12-08T02:01:26;25.20;;;11.70;;
19163;SDS011;9714;51.208;4.242;2022-12-08T02:03:55;24.00;;;12.43;;
19163;SDS011;9714;51.208;4.242;2022-12-08T02:06:24;24.47;;;10.37;;
19163;SDS011;9714;51.208;4.242;2022-12-08T02:08:52;24.23;;;11.23;;
19163;SDS011;9714;51.208;4.242;2022-12-08T02:11:20;21.87;;;10.90;;
19163;SDS011;9714;51.208;4.242;2022-12-08T02:13:47;24.03;;;10.13;;
19163;SDS011;9714;51.208;4.242;2022-12-08T02:16:21;27.97;;;10.07;;
19163;SDS011;9714;51.208;4.242;2022-12-08T02:19:15;16.77;;;8.83;;
19163;SDS011;9714;51.208;4.242;2022-12-08T02:22:19;24.33;;;10.90;;
19163;SDS011;9714;51.208;4.242;2022-12-08T02:24:52;26.10;;;10.33;;
19163;SDS011;9714;51.208;4.242;2022-12-08T02:27:27;23.47;;;9.80;;
19163;SDS011;9714;51.208;4.242;2022-12-08T02:30:10;21.80;;;9.80;;
19163;SDS011;9714;51.208;4.242;2022-12-08T02:32:52;25.00;;;10.27;;
19163;SDS011;9714;51.208;4.242;2022-12-08T02:35:40;24.30;;;9.63;;
19163;SDS011;9714;51.208;4.242;2022-12-08T02:38:14;19.80;;;8.47;;
19163;SDS011;9714;51.208;4.242;2022-12-08T02:40:48;22.57;;;9.67;;
19163;SDS011;9714;51.208;4.242;2022-12-08T02:43:21;21.90;;;8.90;;
19163;SDS011;9714;51.208;4.242;2022-12-08T02:45:56;23.80;;;8.63;;
19163;SDS011;9714;51.208;4.242;2022-12-08T02:48:27;17.73;;;8.23;;
19163;SDS011;9714;51.208;4.242;2022-12-08T02:50:56;19.60;;;8.20;;
19163;SDS011;9714;51.208;4.242;2022-12-08T02:53:23;16.67;;;8.57;;
19163;SDS011;9714;51.208;4.242;2022-12-08T02:55:55;20.37;;;8.93;;
19163;SDS011;9714;51.208;4.242;2022-12-08T02:58:39;25.13;;;8.57;;
19163;SDS011;9714;51.208;4.242;2022-12-08T03:01:24;15.37;;;7.83;;
19163;SDS011;9714;51.208;4.242;2022-12-08T03:04:01;18.10;;;7.20;;
19163;SDS011;9714;51.208;4.242;2022-12-08T03:06:40;17.83;;;8.00;;
19163;SDS011;9714;51.208;4.242;2022-12-08T03:09:16;18.63;;;7.60;;
19163;SDS011;9714;51.208;4.242;2022-12-08T03:11:55;20.73;;;8.13;;
19163;SDS011;9714;51.208;4.242;2022-12-08T03:14:32;18.80;;;7.93;;
19163;SDS011;9714;51.208;4.242;2022-12-08T03:17:00;17.50;;;7.87;;
19163;SDS011;9714;51.208;4.242;2022-12-08T03:19:29;22.40;;;7.37;;
19163;SDS011;9714;51.208;4.242;2022-12-08T03:22:02;18.33;;;7.87;;
19163;SDS011;9714;51.208;4.242;2022-12-08T03:24:31;19.30;;;6.37;;
19163;SDS011;9714;51.208;4.242;2022-12-08T03:27:03;14.77;;;6.50;;
19163;SDS011;9714;51.208;4.242;2022-12-08T03:29:37;18.20;;;6.37;;
19163;SDS011;9714;51.208;4.242;2022-12-08T03:32:06;17.07;;;6.47;;
19163;SDS011;9714;51.208;4.242;2022-12-08T03:34:38;15.93;;;6.60;;
19163;SDS011;9714;51.208;4.242;2022-12-08T03:37:08;15.23;;;6.10;;
19163;SDS011;9714;51.208;4.242;2022-12-08T03:39:35;17.97;;;6.07;;
19163;SDS011;9714;51.208;4.242;2022-12-08T03:42:02;14.50;;;6.27;;
19163;SDS011;9714;51.208;4.242;2022-12-08T03:44:29;14.70;;;6.33;;
19163;SDS011;9714;51.208;4.242;2022-12-08T03:46:56;17.57;;;6.70;;
19163;SDS011;9714;51.208;4.242;2022-12-08T03:49:23;16.13;;;5.87;;
19163;SDS011;9714;51.208;4.242;2022-12-08T03:51:50;14.07;;;6.40;;
19163;SDS011;9714;51.208;4.242;2022-12-08T03:54:18;16.07;;;6.40;;
19163;SDS011;9714;51.208;4.242;2022-12-08T03:56:45;18.33;;;6.87;;
19163;SDS011;9714;51.208;4.242;2022-12-08T03:59:12;15.57;;;6.40;;
19163;SDS011;9714;51.208;4.242;2022-12-08T04:01:39;13.80;;;6.43;;
19163;SDS011;9714;51.208;4.242;2022-12-08T04:04:06;12.57;;;6.03;;
19163;SDS011;9714;51.208;4.242;2022-12-08T04:06:33;13.63;;;6.47;;
19163;SDS011;9714;51.208;4.242;2022-12-08T04:09:00;16.43;;;6.13;;
19163;SDS011;9714;51.208;4.242;2022-12-08T04:11:28;15.33;;;6.50;;
19163;SDS011;9714;51.208;4.242;2022-12-08T04:13:55;18.67;;;7.10;;
19163;SDS011;9714;51.208;4.242;2022-12-08T04:16:23;15.80;;;6.53;;
19163;SDS011;9714;51.208;4.242;2022-12-08T04:18:50;19.17;;;6.57;;
19163;SDS011;9714;51.208;4.242;2022-12-08T04:21:18;15.60;;;6.57;;
19163;SDS011;9714;51.208;4.242;2022-12-08T04:23:45;15.77;;;6.43;;
19163;SDS011;9714;51.208;4.242;2022-12-08T04:26:13;16.10;;;6.47;;
19163;SDS011;9714;51.208;4.242;2022-12-08T04:28:41;18.67;;;6.87;;
19163;SDS011;9714;51.208;4.242;2022-12-08T04:31:08;18.47;;;7.13;;
19163;SDS011;9714;51.208;4.242;2022-12-08T04:33:35;18.70;;;7.30;;
19163;SDS011;9714;51.208;4.242;2022-12-08T04:36:03;16.37;;;7.17;;
19163;SDS011;9714;51.208;4.242;2022-12-08T04:38:30;13.07;;;5.93;;
19163;SDS011;9714;51.208;4.242;2022-12-08T04:40:58;13.97;;;6.30;;
19163;SDS011;9714;51.208;4.242;2022-12-08T04:43:25;17.00;;;7.23;;
19163;SDS011;9714;51.208;4.242;2022-12-08T04:45:54;16.17;;;6.80;;
19163;SDS011;9714;51.208;4.242;2022-12-08T04:48:21;15.77;;;6.10;;
19163;SDS011;9714;51.208;4.242;2022-12-08T04:50:48;21.17;;;6.73;;
19163;SDS011;9714;51.208;4.242;2022-12-08T04:53:15;15.53;;;6.20;;
19163;SDS011;9714;51.208;4.242;2022-12-08T04:55:43;16.07;;;6.17;;
19163;SDS011;9714;51.208;4.242;2022-12-08T04:58:12;18.27;;;5.80;;
19163;SDS011;9714;51.208;4.242;2022-12-08T05:00:40;19.40;;;6.20;;
19163;SDS011;9714;51.208;4.242;2022-12-08T05:03:10;14.80;;;5.73;;
19163;SDS011;9714;51.208;4.242;2022-12-08T05:05:37;16.50;;;5.77;;
19163;SDS011;9714;51.208;4.242;2022-12-08T05:08:04;15.97;;;6.30;;
19163;SDS011;9714;51.208;4.242;2022-12-08T05:10:31;15.70;;;6.73;;
19163;SDS011;9714;51.208;4.242;2022-12-08T05:12:58;13.33;;;6.03;;
19163;SDS011;9714;51.208;4.242;2022-12-08T05:15:26;17.77;;;5.83;;
19163;SDS011;9714;51.208;4.242;2022-12-08T05:17:53;17.33;;;6.00;;
19163;SDS011;9714;51.208;4.242;2022-12-08T05:20:21;14.87;;;5.70;;
19163;SDS011;9714;51.208;4.242;2022-12-08T05:22:48;13.83;;;6.33;;
19163;SDS011;9714;51.208;4.242;2022-12-08T05:25:15;17.70;;;6.60;;
19163;SDS011;9714;51.208;4.242;2022-12-08T05:27:42;13.50;;;6.10;;
19163;SDS011;9714;51.208;4.242;2022-12-08T05:30:09;15.03;;;7.33;;
19163;SDS011;9714;51.208;4.242;2022-12-08T05:32:37;16.67;;;6.93;;
19163;SDS011;9714;51.208;4.242;2022-12-08T05:35:04;19.47;;;7.13;;
19163;SDS011;9714;51.208;4.242;2022-12-08T05:37:33;23.47;;;7.50;;
19163;SDS011;9714;51.208;4.242;2022-12-08T05:40:00;18.33;;;6.77;;
19163;SDS011;9714;51.208;4.242;2022-12-08T05:42:27;17.87;;;7.40;;
19163;SDS011;9714;51.208;4.242;2022-12-08T05:44:54;15.97;;;6.17;;
19163;SDS011;9714;51.208;4.242;2022-12-08T05:47:21;14.70;;;6.67;;
19163;SDS011;9714;51.208;4.242;2022-12-08T05:49:48;17.63;;;7.07;;
19163;SDS011;9714;51.208;4.242;2022-12-08T05:52:15;15.70;;;7.37;;
19163;SDS011;9714;51.208;4.242;2022-12-08T05:54:43;17.67;;;6.83;;
19163;SDS011;9714;51.208;4.242;2022-12-08T05:57:10;17.27;;;7.57;;
19163;SDS011;9714;51.208;4.242;2022-12-08T05:59:37;20.37;;;8.13;;
19163;SDS011;9714;51.208;4.242;2022-12-08T06:02:04;18.40;;;8.57;;
19163;SDS011;9714;51.208;4.242;2022-12-08T06:04:32;16.37;;;7.07;;
19163;SDS011;9714;51.208;4.242;2022-12-08T06:06:59;16.23;;;7.13;;
19163;SDS011;9714;51.208;4.242;2022-12-08T06:09:26;16.47;;;7.20;;
19163;SDS011;9714;51.208;4.242;2022-12-08T06:11:55;17.17;;;7.60;;
19163;SDS011;9714;51.208;4.242;2022-12-08T06:14:22;18.30;;;7.27;;
19163;SDS011;9714;51.208;4.242;2022-12-08T06:16:49;17.77;;;7.53;;
19163;SDS011;9714;51.208;4.242;2022-12-08T06:19:22;18.90;;;7.53;;
19163;SDS011;9714;51.208;4.242;2022-12-08T06:21:48;16.80;;;7.77;;
19163;SDS011;9714;51.208;4.242;2022-12-08T06:24:23;18.70;;;7.37;;
19163;SDS011;9714;51.208;4.242;2022-12-08T06:26:52;19.17;;;7.70;;
19163;SDS011;9714;51.208;4.242;2022-12-08T06:29:21;17.83;;;8.27;;
19163;SDS011;9714;51.208;4.242;2022-12-08T06:31:51;19.40;;;9.00;;
19163;SDS011;9714;51.208;4.242;2022-12-08T06:34:20;17.80;;;8.30;;
19163;SDS011;9714;51.208;4.242;2022-12-08T06:36:53;26.00;;;9.03;;
19163;SDS011;9714;51.208;4.242;2022-12-08T06:39:25;22.23;;;9.17;;
19163;SDS011;9714;51.208;4.242;2022-12-08T06:41:57;21.50;;;9.20;;
19163;SDS011;9714;51.208;4.242;2022-12-08T06:44:49;20.33;;;8.60;;
19163;SDS011;9714;51.208;4.242;2022-12-08T06:49:48;25.70;;;9.37;;
19163;SDS011;9714;51.208;4.242;2022-12-08T06:52:24;21.00;;;8.73;;
19163;SDS011;9714;51.208;4.242;2022-12-08T06:57:23;22.83;;;8.90;;
19163;SDS011;9714;51.208;4.242;2022-12-08T06:59:53;21.47;;;9.93;;
19163;SDS011;9714;51.208;4.242;2022-12-08T07:02:20;26.33;;;10.47;;
19163;SDS011;9714;51.208;4.242;2022-12-08T07:04:48;21.80;;;9.00;;
19163;SDS011;9714;51.208;4.242;2022-12-08T07:07:16;22.43;;;9.90;;
19163;SDS011;9714;51.208;4.242;2022-12-08T07:09:44;26.70;;;8.70;;
19163;SDS011;9714;51.208;4.242;2022-12-08T07:12:11;27.20;;;10.60;;
19163;SDS011;9714;51.208;4.242;2022-12-08T07:14:40;28.13;;;10.80;;
19163;SDS011;9714;51.208;4.242;2022-12-08T07:17:07;22.23;;;9.70;;
19163;SDS011;9714;51.208;4.242;2022-12-08T07:19:34;25.87;;;11.00;;
19163;SDS011;9714;51.208;4.242;2022-12-08T07:22:01;20.97;;;9.80;;
19163;SDS011;9714;51.208;4.242;2022-12-08T07:24:29;24.70;;;10.67;;
19163;SDS011;9714;51.208;4.242;2022-12-08T07:26:56;22.30;;;9.13;;
19163;SDS011;9714;51.208;4.242;2022-12-08T07:29:24;20.53;;;8.83;;
19163;SDS011;9714;51.208;4.242;2022-12-08T07:31:52;23.40;;;8.73;;
19163;SDS011;9714;51.208;4.242;2022-12-08T07:34:19;22.00;;;10.63;;
19163;SDS011;9714;51.208;4.242;2022-12-08T07:36:46;28.37;;;11.07;;
19163;SDS011;9714;51.208;4.242;2022-12-08T07:39:15;25.67;;;11.57;;
19163;SDS011;9714;51.208;4.242;2022-12-08T07:41:42;25.10;;;12.30;;
19163;SDS011;9714;51.208;4.242;2022-12-08T07:44:09;27.47;;;13.07;;
19163;SDS011;9714;51.208;4.242;2022-12-08T07:46:36;27.53;;;13.63;;
19163;SDS011;9714;51.208;4.242;2022-12-08T07:49:05;27.53;;;13.43;;
19163;SDS011;9714;51.208;4.242;2022-12-08T07:51:32;23.77;;;12.10;;
19163;SDS011;9714;51.208;4.242;2022-12-08T07:53:59;21.60;;;10.47;;
19163;SDS011;9714;51.208;4.242;2022-12-08T07:56:27;21.87;;;9.30;;
19163;SDS011;9714;51.208;4.242;2022-12-08T08:01:26;18.03;;;7.53;;
19163;SDS011;9714;51.208;4.242;2022-12-08T08:03:55;19.67;;;7.60;;
19163;SDS011;9714;51.208;4.242;2022-12-08T08:06:26;17.97;;;7.93;;
19163;SDS011;9714;51.208;4.242;2022-12-08T08:08:56;16.00;;;6.93;;
19163;SDS011;9714;51.208;4.242;2022-12-08T08:11:23;16.23;;;7.23;;
19163;SDS011;9714;51.208;4.242;2022-12-08T08:13:51;16.97;;;7.10;;
19163;SDS011;9714;51.208;4.242;2022-12-08T08:16:19;14.93;;;6.33;;
19163;SDS011;9714;51.208;4.242;2022-12-08T08:18:46;17.37;;;7.10;;
19163;SDS011;9714;51.208;4.242;2022-12-08T08:21:14;15.97;;;6.80;;
19163;SDS011;9714;51.208;4.242;2022-12-08T08:23:42;19.73;;;8.00;;
19163;SDS011;9714;51.208;4.242;2022-12-08T08:26:09;14.57;;;6.20;;
19163;SDS011;9714;51.208;4.242;2022-12-08T08:28:36;14.80;;;6.57;;
19163;SDS011;9714;51.208;4.242;2022-12-08T08:31:04;17.90;;;6.57;;
19163;SDS011;9714;51.208;4.242;2022-12-08T08:33:32;14.03;;;5.90;;
19163;SDS011;9714;51.208;4.242;2022-12-08T08:36:00;14.73;;;6.03;;
19163;SDS011;9714;51.208;4.242;2022-12-08T08:38:28;14.37;;;6.00;;
19163;SDS011;9714;51.208;4.242;2022-12-08T08:41:05;15.27;;;6.00;;
19163;SDS011;9714;51.208;4.242;2022-12-08T08:43:33;16.43;;;6.10;;
19163;SDS011;9714;51.208;4.242;2022-12-08T08:46:00;16.53;;;5.80;;
19163;SDS011;9714;51.208;4.242;2022-12-08T08:48:29;14.57;;;5.80;;
19163;SDS011;9714;51.208;4.242;2022-12-08T08:50:57;18.60;;;6.03;;
19163;SDS011;9714;51.208;4.242;2022-12-08T08:53:31;16.40;;;6.00;;
19163;SDS011;9714;51.208;4.242;2022-12-08T08:55:59;16.70;;;5.40;;
19163;SDS011;9714;51.208;4.242;2022-12-08T08:58:29;14.13;;;5.03;;
19163;SDS011;9714;51.208;4.242;2022-12-08T09:00:56;19.30;;;5.90;;
19163;SDS011;9714;51.208;4.242;2022-12-08T09:03:23;13.13;;;5.37;;
19163;SDS011;9714;51.208;4.242;2022-12-08T09:05:50;13.63;;;5.10;;
19163;SDS011;9714;51.208;4.242;2022-12-08T09:08:17;11.60;;;5.30;;
19163;SDS011;9714;51.208;4.242;2022-12-08T09:10:44;16.90;;;5.97;;
19163;SDS011;9714;51.208;4.242;2022-12-08T09:13:12;14.77;;;5.67;;
19163;SDS011;9714;51.208;4.242;2022-12-08T09:15:39;17.03;;;5.17;;
19163;SDS011;9714;51.208;4.242;2022-12-08T09:18:06;16.03;;;5.07;;
19163;SDS011;9714;51.208;4.242;2022-12-08T09:20:33;16.47;;;5.53;;
19163;SDS011;9714;51.208;4.242;2022-12-08T09:23:00;16.03;;;5.77;;
19163;SDS011;9714;51.208;4.242;2022-12-08T09:25:27;12.60;;;4.83;;
19163;SDS011;9714;51.208;4.242;2022-12-08T09:27:54;12.47;;;4.70;;
19163;SDS011;9714;51.208;4.242;2022-12-08T09:30:23;14.57;;;4.40;;
19163;SDS011;9714;51.208;4.242;2022-12-08T09:32:51;12.50;;;4.33;;
19163;SDS011;9714;51.208;4.242;2022-12-08T09:35:18;13.10;;;4.67;;
19163;SDS011;9714;51.208;4.242;2022-12-08T09:37:44;10.70;;;3.90;;
19163;SDS011;9714;51.208;4.242;2022-12-08T09:40:13;14.27;;;4.20;;
19163;SDS011;9714;51.208;4.242;2022-12-08T09:42:46;13.13;;;4.10;;
19163;SDS011;9714;51.208;4.242;2022-12-08T09:45:20;18.83;;;4.70;;
19163;SDS011;9714;51.208;4.242;2022-12-08T09:47:56;14.10;;;4.80;;
19163;SDS011;9714;51.208;4.242;2022-12-08T09:50:29;14.70;;;5.10;;
19163;SDS011;9714;51.208;4.242;2022-12-08T09:53:02;13.07;;;5.30;;
19163;SDS011;9714;51.208;4.242;2022-12-08T09:55:36;16.60;;;4.67;;
19163;SDS011;9714;51.208;4.242;2022-12-08T09:58:09;17.83;;;4.60;;
19163;SDS011;9714;51.208;4.242;2022-12-08T10:00:46;13.63;;;4.33;;
19163;SDS011;9714;51.208;4.242;2022-12-08T10:03:13;13.00;;;4.13;;
19163;SDS011;9714;51.208;4.242;2022-12-08T10:05:41;12.40;;;4.40;;
19163;SDS011;9714;51.208;4.242;2022-12-08T10:08:15;10.70;;;4.57;;
19163;SDS011;9714;51.208;4.242;2022-12-08T10:10:47;17.03;;;4.93;;
19163;SDS011;9714;51.208;4.242;2022-12-08T10:13:23;14.90;;;5.13;;
19163;SDS011;9714;51.208;4.242;2022-12-08T10:16:00;16.33;;;4.83;;
19163;SDS011;9714;51.208;4.242;2022-12-08T10:18:37;14.37;;;4.77;;
19163;SDS011;9714;51.208;4.242;2022-12-08T10:21:10;12.87;;;4.80;;
19163;SDS011;9714;51.208;4.242;2022-12-08T10:23:42;22.07;;;6.70;;
19163;SDS011;9714;51.208;4.242;2022-12-08T10:26:13;15.67;;;6.70;;
19163;SDS011;9714;51.208;4.242;2022-12-08T10:28:41;18.87;;;5.93;;
19163;SDS011;9714;51.208;4.242;2022-12-08T10:31:14;15.93;;;5.57;;
19163;SDS011;9714;51.208;4.242;2022-12-08T10:33:42;14.57;;;5.53;;
19163;SDS011;9714;51.208;4.242;2022-12-08T10:36:11;13.73;;;5.63;;
19163;SDS011;9714;51.208;4.242;2022-12-08T10:38:38;17.13;;;6.00;;
19163;SDS011;9714;51.208;4.242;2022-12-08T10:41:08;16.87;;;5.23;;
19163;SDS011;9714;51.208;4.242;2022-12-08T10:43:39;14.03;;;5.23;;
19163;SDS011;9714;51.208;4.242;2022-12-08T10:46:10;13.60;;;4.67;;
19163;SDS011;9714;51.208;4.242;2022-12-08T10:48:47;13.50;;;5.97;;
19163;SDS011;9714;51.208;4.242;2022-12-08T10:51:23;13.73;;;5.00;;
19163;SDS011;9714;51.208;4.242;2022-12-08T10:53:53;12.50;;;3.93;;
19163;SDS011;9714;51.208;4.242;2022-12-08T10:56:23;18.10;;;4.00;;
19163;SDS011;9714;51.208;4.242;2022-12-08T10:59:03;10.53;;;3.87;;
19163;SDS011;9714;51.208;4.242;2022-12-08T11:01:32;11.47;;;3.00;;
19163;SDS011;9714;51.208;4.242;2022-12-08T11:04:04;9.50;;;3.10;;
19163;SDS011;9714;51.208;4.242;2022-12-08T11:06:40;13.13;;;4.10;;
19163;SDS011;9714;51.208;4.242;2022-12-08T11:09:21;14.47;;;4.27;;
19163;SDS011;9714;51.208;4.242;2022-12-08T11:11:59;12.83;;;3.43;;
19163;SDS011;9714;51.208;4.242;2022-12-08T11:14:34;9.20;;;2.87;;
19163;SDS011;9714;51.208;4.242;2022-12-08T11:17:11;10.80;;;3.50;;
19163;SDS011;9714;51.208;4.242;2022-12-08T11:19:42;9.80;;;3.50;;
19163;SDS011;9714;51.208;4.242;2022-12-08T11:22:22;9.03;;;3.20;;
19163;SDS011;9714;51.208;4.242;2022-12-08T11:24:58;11.07;;;3.43;;
19163;SDS011;9714;51.208;4.242;2022-12-08T11:27:28;11.20;;;3.90;;
19163;SDS011;9714;51.208;4.242;2022-12-08T11:29:56;13.47;;;3.37;;
19163;SDS011;9714;51.208;4.242;2022-12-08T11:32:23;11.57;;;4.13;;
19163;SDS011;9714;51.208;4.242;2022-12-08T11:34:52;13.47;;;5.07;;
19163;SDS011;9714;51.208;4.242;2022-12-08T11:37:24;14.30;;;5.90;;
19163;SDS011;9714;51.208;4.242;2022-12-08T11:39:56;15.27;;;6.50;;
19163;SDS011;9714;51.208;4.242;2022-12-08T11:42:29;19.90;;;6.53;;
19163;SDS011;9714;51.208;4.242;2022-12-08T11:45:00;20.60;;;6.20;;
19163;SDS011;9714;51.208;4.242;2022-12-08T11:47:33;17.60;;;6.33;;
19163;SDS011;9714;51.208;4.242;2022-12-08T11:50:14;17.70;;;6.23;;
19163;SDS011;9714;51.208;4.242;2022-12-08T11:52:46;15.43;;;6.73;;
19163;SDS011;9714;51.208;4.242;2022-12-08T11:55:20;18.27;;;7.10;;
19163;SDS011;9714;51.208;4.242;2022-12-08T11:57:56;19.77;;;7.90;;
19163;SDS011;9714;51.208;4.242;2022-12-08T12:00:28;17.03;;;7.20;;
19163;SDS011;9714;51.208;4.242;2022-12-08T12:02:57;18.83;;;8.17;;
19163;SDS011;9714;51.208;4.242;2022-12-08T12:05:33;23.27;;;7.87;;
19163;SDS011;9714;51.208;4.242;2022-12-08T12:08:12;26.63;;;8.00;;
19163;SDS011;9714;51.208;4.242;2022-12-08T12:10:53;22.80;;;7.87;;
19163;SDS011;9714;51.208;4.242;2022-12-08T12:13:35;16.13;;;8.13;;
19163;SDS011;9714;51.208;4.242;2022-12-08T12:16:30;11.03;;;4.13;;
19163;SDS011;9714;51.208;4.242;2022-12-08T12:19:16;5.17;;;1.70;;
19163;SDS011;9714;51.208;4.242;2022-12-08T12:21:49;3.27;;;1.03;;
19163;SDS011;9714;51.208;4.242;2022-12-08T12:24:21;3.73;;;1.03;;
19163;SDS011;9714;51.208;4.242;2022-12-08T12:26:53;2.40;;;0.80;;
19163;SDS011;9714;51.208;4.242;2022-12-08T12:29:23;1.23;;;0.60;;
19163;SDS011;9714;51.208;4.242;2022-12-08T12:31:53;2.23;;;0.80;;
19163;SDS011;9714;51.208;4.242;2022-12-08T12:34:24;6.30;;;0.77;;
19163;SDS011;9714;51.208;4.242;2022-12-08T12:36:54;4.10;;;1.00;;
19163;SDS011;9714;51.208;4.242;2022-12-08T12:39:25;4.63;;;0.90;;
19163;SDS011;9714;51.208;4.242;2022-12-08T12:41:55;3.40;;;1.00;;
19163;SDS011;9714;51.208;4.242;2022-12-08T12:44:37;2.73;;;0.90;;
19163;SDS011;9714;51.208;4.242;2022-12-08T12:47:11;2.37;;;0.87;;
19163;SDS011;9714;51.208;4.242;2022-12-08T12:52:48;2.60;;;0.70;;
19163;SDS011;9714;51.208;4.242;2022-12-08T12:55:26;3.50;;;0.63;;
19163;SDS011;9714;51.208;4.242;2022-12-08T13:04:05;4.13;;;1.90;;
19163;SDS011;9714;51.208;4.242;2022-12-08T13:06:40;3.00;;;1.20;;
19163;SDS011;9714;51.208;4.242;2022-12-08T13:09:21;4.60;;;1.83;;
19163;SDS011;9714;51.208;4.242;2022-12-08T13:11:52;5.50;;;1.43;;
19163;SDS011;9714;51.208;4.242;2022-12-08T13:14:31;6.00;;;1.20;;
19163;SDS011;9714;51.208;4.242;2022-12-08T13:17:00;4.00;;;1.23;;
19163;SDS011;9714;51.208;4.242;2022-12-08T13:19:31;5.27;;;1.77;;
19163;SDS011;9714;51.208;4.242;2022-12-08T13:22:00;6.80;;;2.00;;
19163;SDS011;9714;51.208;4.242;2022-12-08T13:24:33;7.80;;;2.27;;
19163;SDS011;9714;51.208;4.242;2022-12-08T13:33:09;14.23;;;2.00;;
19163;SDS011;9714;51.208;4.242;2022-12-08T13:35:41;4.67;;;1.60;;
19163;SDS011;9714;51.208;4.242;2022-12-08T13:38:14;7.83;;;1.60;;
19163;SDS011;9714;51.208;4.242;2022-12-08T13:40:46;6.23;;;1.50;;
19163;SDS011;9714;51.208;4.242;2022-12-08T13:43:15;6.07;;;2.00;;
19163;SDS011;9714;51.208;4.242;2022-12-08T13:45:48;6.80;;;2.43;;
19163;SDS011;9714;51.208;4.242;2022-12-08T13:48:17;6.63;;;2.20;;
19163;SDS011;9714;51.208;4.242;2022-12-08T13:50:51;5.77;;;2.40;;
19163;SDS011;9714;51.208;4.242;2022-12-08T13:53:23;8.13;;;2.10;;
19163;SDS011;9714;51.208;4.242;2022-12-08T13:55:55;6.00;;;2.37;;
19163;SDS011;9714;51.208;4.242;2022-12-08T13:58:25;6.80;;;2.20;;
19163;SDS011;9714;51.208;4.242;2022-12-08T14:00:56;7.40;;;2.50;;
19163;SDS011;9714;51.208;4.242;2022-12-08T14:03:30;8.80;;;3.63;;
19163;SDS011;9714;51.208;4.242;2022-12-08T14:06:01;9.17;;;3.53;;
19163;SDS011;9714;51.208;4.242;2022-12-08T14:08:29;10.17;;;3.60;;
19163;SDS011;9714;51.208;4.242;2022-12-08T14:11:00;9.57;;;3.73;;
19163;SDS011;9714;51.208;4.242;2022-12-08T14:13:29;11.60;;;3.57;;
19163;SDS011;9714;51.208;4.242;2022-12-08T14:15:57;9.43;;;3.73;;
19163;SDS011;9714;51.208;4.242;2022-12-08T14:18:25;8.33;;;3.07;;
19163;SDS011;9714;51.208;4.242;2022-12-08T14:21:00;6.17;;;2.80;;
19163;SDS011;9714;51.208;4.242;2022-12-08T14:23:28;7.33;;;2.90;;
19163;SDS011;9714;51.208;4.242;2022-12-08T14:25:57;7.63;;;2.67;;
19163;SDS011;9714;51.208;4.242;2022-12-08T14:28:25;8.00;;;2.80;;
19163;SDS011;9714;51.208;4.242;2022-12-08T14:30:53;7.07;;;2.47;;
19163;SDS011;9714;51.208;4.242;2022-12-08T14:33:21;7.17;;;2.50;;
19163;SDS011;9714;51.208;4.242;2022-12-08T14:35:49;6.90;;;2.73;;
19163;SDS011;9714;51.208;4.242;2022-12-08T14:38:18;12.47;;;2.73;;
19163;SDS011;9714;51.208;4.242;2022-12-08T14:40:48;9.00;;;3.40;;
19163;SDS011;9714;51.208;4.242;2022-12-08T14:43:26;9.37;;;3.93;;
19163;SDS011;9714;51.208;4.242;2022-12-08T14:45:58;9.93;;;4.00;;
19163;SDS011;9714;51.208;4.242;2022-12-08T14:48:31;11.33;;;4.60;;
19163;SDS011;9714;51.208;4.242;2022-12-08T14:51:06;12.97;;;5.23;;
19163;SDS011;9714;51.208;4.242;2022-12-08T14:53:40;13.03;;;4.77;;
19163;SDS011;9714;51.208;4.242;2022-12-08T14:56:10;13.73;;;4.63;;
19163;SDS011;9714;51.208;4.242;2022-12-08T14:58:45;15.20;;;4.50;;
19163;SDS011;9714;51.208;4.242;2022-12-08T15:01:14;10.90;;;3.10;;
19163;SDS011;9714;51.208;4.242;2022-12-08T15:03:46;12.73;;;3.60;;
19163;SDS011;9714;51.208;4.242;2022-12-08T15:06:15;9.37;;;3.57;;
19163;SDS011;9714;51.208;4.242;2022-12-08T15:08:50;13.43;;;4.17;;
19163;SDS011;9714;51.208;4.242;2022-12-08T15:11:29;14.07;;;4.17;;
19163;SDS011;9714;51.208;4.242;2022-12-08T15:13:59;12.57;;;4.90;;
19163;SDS011;9714;51.208;4.242;2022-12-08T15:16:28;15.70;;;6.00;;
19163;SDS011;9714;51.208;4.242;2022-12-08T15:19:02;16.30;;;5.70;;
19163;SDS011;9714;51.208;4.242;2022-12-08T15:21:33;15.00;;;6.67;;
19163;SDS011;9714;51.208;4.242;2022-12-08T15:24:02;18.30;;;7.63;;
19163;SDS011;9714;51.208;4.242;2022-12-08T15:26:31;18.83;;;7.47;;
19163;SDS011;9714;51.208;4.242;2022-12-08T15:29:10;17.63;;;7.57;;
19163;SDS011;9714;51.208;4.242;2022-12-08T15:31:39;21.93;;;8.13;;